createdAt,value
2023-05-22T00:01:56.742Z,9.50
2023-05-22T00:04:24.007Z,9.43
2023-05-22T00:06:51.194Z,10.43
2023-05-22T00:09:18.338Z,10.03
2023-05-22T00:11:45.249Z,11.33
2023-05-22T00:14:13.768Z,11.27
2023-05-22T00:16:41.544Z,10.57
2023-05-22T00:19:17.389Z,11.30
2023-05-22T00:21:44.961Z,9.90
2023-05-22T00:24:12.338Z,10.97
2023-05-22T00:26:39.087Z,10.43
2023-05-22T00:29:06.023Z,11.83
2023-05-22T00:31:33.246Z,12.60
2023-05-22T00:34:00.160Z,10.60
2023-05-22T00:36:27.121Z,10.13
2023-05-22T00:38:54.131Z,10.60
2023-05-22T00:41:22.306Z,9.93
2023-05-22T00:43:51.045Z,12.07
2023-05-22T00:46:21.842Z,9.77
2023-05-22T00:48:49.169Z,11.17
2023-05-22T00:51:16.197Z,10.60
2023-05-22T00:53:44.096Z,11.43
2023-05-22T00:56:11.276Z,9.73
2023-05-22T00:58:38.238Z,11.70
2023-05-22T01:01:07.957Z,10.80
2023-05-22T01:03:37.585Z,10.93
2023-05-22T01:06:04.791Z,9.67
2023-05-22T01:08:31.573Z,11.40
2023-05-22T01:11:10.747Z,11.10
2023-05-22T01:13:53.802Z,10.17
2023-05-22T01:16:39.319Z,12.47
2023-05-22T01:19:39.479Z,10.50
2023-05-22T01:22:25.404Z,10.53
2023-05-22T01:25:04.165Z,11.57
2023-05-22T01:28:04.884Z,12.13
2023-05-22T01:30:55.150Z,12.27
2023-05-22T01:33:26.268Z,11.47
2023-05-22T01:35:57.209Z,11.77
2023-05-22T01:38:25.213Z,11.40
2023-05-22T01:40:52.899Z,11.27
2023-05-22T01:43:20.382Z,14.17
2023-05-22T01:45:47.725Z,12.50
2023-05-22T01:48:14.541Z,11.10
2023-05-22T01:50:42.033Z,10.30
2023-05-22T01:53:27.895Z,11.43
2023-05-22T01:55:56.124Z,10.40
2023-05-22T01:58:39.577Z,12.10
2023-05-22T02:01:10.379Z,10.70
2023-05-22T02:03:39.900Z,11.33
2023-05-22T02:06:10.040Z,10.60
2023-05-22T02:08:39.595Z,12.40
2023-05-22T02:11:07.690Z,10.80
2023-05-22T02:13:35.361Z,10.00
2023-05-22T02:16:04.268Z,12.50
2023-05-22T02:18:31.764Z,11.03
2023-05-22T02:20:59.120Z,12.23
2023-05-22T02:23:29.897Z,12.00
2023-05-22T02:25:57.068Z,10.83
2023-05-22T02:28:24.851Z,11.30
2023-05-22T02:30:52.155Z,10.37
2023-05-22T02:33:19.105Z,10.90
2023-05-22T02:35:46.632Z,10.97
2023-05-22T02:38:13.532Z,11.10
2023-05-22T02:40:40.922Z,11.20
2023-05-22T02:43:08.233Z,11.93
2023-05-22T02:45:35.021Z,11.20
2023-05-22T02:48:04.009Z,10.60
2023-05-22T02:50:30.801Z,11.73
2023-05-22T02:52:57.824Z,10.97
2023-05-22T02:55:24.763Z,11.67
2023-05-22T02:57:51.517Z,13.57
2023-05-22T03:00:19.160Z,11.33
2023-05-22T03:02:45.984Z,12.53
2023-05-22T03:05:18.303Z,11.63
2023-05-22T03:07:48.400Z,11.73
2023-05-22T03:10:15.775Z,13.43
2023-05-22T03:12:42.797Z,13.17
2023-05-22T03:15:10.304Z,13.13
2023-05-22T03:17:37.435Z,10.70
2023-05-22T03:20:05.634Z,11.40
2023-05-22T03:22:32.705Z,13.07
2023-05-22T03:24:59.448Z,13.47
2023-05-22T03:27:28.561Z,11.73
2023-05-22T03:29:55.378Z,12.17
2023-05-22T03:32:22.201Z,14.97
2023-05-22T03:34:49.239Z,13.67
2023-05-22T03:37:16.152Z,12.90
2023-05-22T03:39:43.136Z,12.83
2023-05-22T03:42:10.376Z,11.63
2023-05-22T03:44:37.154Z,12.97
2023-05-22T03:47:04.383Z,14.73
2023-05-22T03:49:31.152Z,12.67
2023-05-22T03:51:57.882Z,14.63
2023-05-22T03:54:24.923Z,15.53
2023-05-22T03:56:51.760Z,15.80
2023-05-22T03:59:18.801Z,15.13
2023-05-22T04:01:46.745Z,16.33
2023-05-22T04:04:13.779Z,14.40
2023-05-22T04:06:43.152Z,12.07
2023-05-22T04:09:12.242Z,11.23
2023-05-22T04:11:42.507Z,12.30
2023-05-22T04:14:10.118Z,12.47
2023-05-22T04:16:37.105Z,10.87
2023-05-22T04:19:04.047Z,14.40
2023-05-22T04:21:34.358Z,11.70
2023-05-22T04:24:02.461Z,10.03
2023-05-22T04:26:32.130Z,10.20
2023-05-22T04:28:59.011Z,11.70
2023-05-22T04:31:25.857Z,15.17
2023-05-22T04:33:54.671Z,8.63
2023-05-22T04:36:26.935Z,8.30
2023-05-22T04:38:54.143Z,12.90
2023-05-22T04:41:26.914Z,10.00
2023-05-22T04:43:54.600Z,11.00
2023-05-22T04:46:21.810Z,16.73
2023-05-22T04:48:48.778Z,9.07
2023-05-22T04:51:15.976Z,9.90
2023-05-22T04:53:42.831Z,10.63
2023-05-22T04:56:09.602Z,16.63
2023-05-22T04:58:38.402Z,8.70
2023-05-22T05:01:05.476Z,12.07
2023-05-22T05:03:32.640Z,9.37
2023-05-22T05:06:00.520Z,9.53
2023-05-22T05:08:27.549Z,14.97
2023-05-22T05:10:54.632Z,17.90
2023-05-22T05:13:21.378Z,12.00
2023-05-22T05:15:55.210Z,15.37
2023-05-22T05:18:21.968Z,16.93
2023-05-22T05:20:49.072Z,22.67
2023-05-22T05:23:16.115Z,12.03
2023-05-22T05:25:42.836Z,14.68
2023-05-22T05:28:11.907Z,14.10
2023-05-22T05:30:40.322Z,8.13
2023-05-22T05:33:07.946Z,7.68
2023-05-22T05:35:35.133Z,8.20
2023-05-22T05:38:01.878Z,11.63
2023-05-22T05:40:28.913Z,14.82
2023-05-22T05:42:56.301Z,18.38
2023-05-22T05:45:23.094Z,16.90
2023-05-22T05:47:50.186Z,8.20
2023-05-22T05:50:17.290Z,8.30
2023-05-22T05:52:44.146Z,6.85
2023-05-22T05:55:11.178Z,10.55
2023-05-22T05:57:38.270Z,7.53
2023-05-22T06:00:06.880Z,7.10
2023-05-22T06:02:34.443Z,6.32
2023-05-22T06:05:02.230Z,9.50
2023-05-22T06:07:29.679Z,6.60
2023-05-22T06:09:56.854Z,8.32
2023-05-22T06:12:23.748Z,9.55
2023-05-22T06:14:51.066Z,6.18
2023-05-22T06:17:17.857Z,7.40
2023-05-22T06:19:44.940Z,7.47
2023-05-22T06:22:12.055Z,8.75
2023-05-22T06:24:38.838Z,6.72
2023-05-22T06:27:05.752Z,8.88
2023-05-22T06:29:32.801Z,8.40
2023-05-22T06:31:59.590Z,6.78
2023-05-22T06:34:27.709Z,7.55
2023-05-22T06:36:54.537Z,7.10
2023-05-22T06:39:21.576Z,6.72
2023-05-22T06:41:48.621Z,6.55
2023-05-22T06:44:15.415Z,8.20
2023-05-22T06:46:42.158Z,6.95
2023-05-22T06:49:09.189Z,8.63
2023-05-22T06:51:35.945Z,7.80
2023-05-22T06:54:06.789Z,8.13
2023-05-22T06:56:33.611Z,8.40
2023-05-22T06:59:01.064Z,7.88
2023-05-22T07:01:29.361Z,11.35
2023-05-22T07:04:05.428Z,6.75
2023-05-22T07:06:33.661Z,6.68
2023-05-22T07:09:00.707Z,8.50
2023-05-22T07:11:27.529Z,7.82
2023-05-22T07:13:54.588Z,7.57
2023-05-22T07:16:22.609Z,6.00
2023-05-22T07:18:49.630Z,6.32
2023-05-22T07:21:16.643Z,6.18
2023-05-22T07:23:43.330Z,6.68
2023-05-22T07:26:10.050Z,10.20
2023-05-22T07:28:36.968Z,6.80
2023-05-22T07:31:04.189Z,6.00
2023-05-22T07:33:30.864Z,6.97
2023-05-22T07:35:57.540Z,7.72
2023-05-22T07:38:24.503Z,6.00
2023-05-22T07:40:51.198Z,7.63
2023-05-22T07:43:18.128Z,8.00
2023-05-22T07:45:44.887Z,6.60
2023-05-22T07:48:11.907Z,5.25
2023-05-22T07:50:38.934Z,5.80
2023-05-22T07:53:06.470Z,6.70
2023-05-22T07:55:33.262Z,5.65
2023-05-22T07:58:00.221Z,10.77
2023-05-22T08:00:27.612Z,5.43
2023-05-22T08:02:54.430Z,7.93
2023-05-22T08:05:21.325Z,5.00
2023-05-22T08:07:48.097Z,6.03
2023-05-22T08:10:16.666Z,8.73
2023-05-22T08:12:43.635Z,5.97
2023-05-22T08:15:11.351Z,31.13
2023-05-22T08:17:38.396Z,8.98
2023-05-22T08:20:06.499Z,6.40
2023-05-22T08:22:34.150Z,5.45
2023-05-22T08:25:01.022Z,5.80
2023-05-22T08:27:28.103Z,5.72
2023-05-22T08:29:55.071Z,5.82
2023-05-22T08:32:21.888Z,6.63
2023-05-22T08:34:48.904Z,5.57
2023-05-22T08:37:15.851Z,9.98
2023-05-22T08:39:42.988Z,5.80
2023-05-22T08:42:09.676Z,14.95
2023-05-22T08:44:36.718Z,7.32
2023-05-22T08:47:09.807Z,6.50
2023-05-22T08:49:38.715Z,6.70
2023-05-22T08:52:14.470Z,6.75
2023-05-22T08:54:43.662Z,8.45
2023-05-22T08:57:11.088Z,5.78
2023-05-22T08:59:40.935Z,5.60
2023-05-22T09:02:09.153Z,10.45
2023-05-22T09:04:36.242Z,6.47
2023-05-22T09:07:05.881Z,5.68
2023-05-22T09:09:37.828Z,11.43
2023-05-22T09:12:09.326Z,5.03
2023-05-22T09:14:43.469Z,5.63
2023-05-22T09:17:14.883Z,7.57
2023-05-22T09:19:46.303Z,6.70
2023-05-22T09:22:14.075Z,6.10
2023-05-22T09:24:42.414Z,6.03
2023-05-22T09:27:11.311Z,5.32
2023-05-22T09:29:49.943Z,5.60
2023-05-22T09:32:17.845Z,9.77
2023-05-22T09:34:46.973Z,8.63
2023-05-22T09:37:14.415Z,5.90
2023-05-22T09:39:44.436Z,5.28
2023-05-22T09:42:12.941Z,5.40
2023-05-22T09:44:39.930Z,4.65
2023-05-22T09:47:07.813Z,5.28
2023-05-22T09:49:52.982Z,5.10
2023-05-22T09:52:21.985Z,6.38
2023-05-22T09:54:55.568Z,5.85
2023-05-22T09:57:25.029Z,6.00
2023-05-22T09:59:54.843Z,5.80
2023-05-22T10:02:23.868Z,5.70
2023-05-22T10:04:51.562Z,6.88
2023-05-22T10:07:22.006Z,7.97
2023-05-22T10:09:54.676Z,5.10
2023-05-22T10:12:23.763Z,4.82
2023-05-22T10:14:50.885Z,4.72
2023-05-22T10:17:17.970Z,5.18
2023-05-22T10:19:47.175Z,5.43
2023-05-22T10:22:21.040Z,5.78
2023-05-22T10:24:48.973Z,5.05
2023-05-22T10:27:15.772Z,6.50
2023-05-22T10:29:50.656Z,5.18
2023-05-22T10:32:46.681Z,5.55
2023-05-22T10:35:50.264Z,5.60
2023-05-22T10:38:57.119Z,5.20
2023-05-22T10:41:26.580Z,5.63
2023-05-22T10:43:56.682Z,5.43
2023-05-22T10:46:23.640Z,8.63
2023-05-22T10:48:53.072Z,5.28
2023-05-22T10:51:23.897Z,5.63
2023-05-22T10:54:05.876Z,5.78
2023-05-22T10:56:37.075Z,9.68
2023-05-22T10:59:05.899Z,4.80
2023-05-22T11:01:36.467Z,5.03
2023-05-22T11:04:09.116Z,5.13
2023-05-22T11:06:37.615Z,5.50
2023-05-22T11:09:28.329Z,5.68
2023-05-22T11:12:17.398Z,4.88
2023-05-22T11:15:06.056Z,5.28
2023-05-22T11:17:43.191Z,5.50
2023-05-22T11:20:21.205Z,5.10
2023-05-22T11:22:57.195Z,4.82
2023-05-22T11:25:24.972Z,8.80
2023-05-22T11:27:53.315Z,6.30
2023-05-22T11:30:21.109Z,4.78
2023-05-22T11:32:48.308Z,4.28
2023-05-22T11:35:18.907Z,5.65
2023-05-22T11:37:46.658Z,5.05
2023-05-22T11:40:15.990Z,7.70
2023-05-22T11:42:42.828Z,4.80
2023-05-22T11:45:10.286Z,5.13
2023-05-22T11:47:37.755Z,5.00
2023-05-22T11:50:06.679Z,4.80
2023-05-22T11:52:34.524Z,4.85
2023-05-22T11:55:01.494Z,4.45
2023-05-22T11:57:28.549Z,7.38
2023-05-22T11:59:55.262Z,4.55
2023-05-22T12:02:22.004Z,4.63
2023-05-22T12:04:54.765Z,9.35
2023-05-22T12:07:22.882Z,3.83
2023-05-22T12:09:50.328Z,4.18
2023-05-22T12:12:17.283Z,4.53
2023-05-22T12:14:46.061Z,7.05
2023-05-22T12:17:13.801Z,5.53
2023-05-22T12:19:41.454Z,5.13
2023-05-22T12:22:09.981Z,4.22
2023-05-22T12:24:46.215Z,4.60
2023-05-22T12:27:13.948Z,6.03
2023-05-22T12:29:41.801Z,7.82
2023-05-22T12:32:13.068Z,17.80
2023-05-22T12:34:47.893Z,5.30
2023-05-22T12:37:22.985Z,4.60
2023-05-22T12:39:57.894Z,4.93
2023-05-22T12:42:28.759Z,4.50
2023-05-22T12:44:57.254Z,5.65
2023-05-22T12:47:25.068Z,4.45
2023-05-22T12:49:52.365Z,4.53
2023-05-22T12:52:19.228Z,5.25
2023-05-22T12:54:46.164Z,4.50
2023-05-22T12:57:12.945Z,4.88
2023-05-22T12:59:39.985Z,6.35
2023-05-22T13:02:07.117Z,8.95
2023-05-22T13:04:38.104Z,5.55
2023-05-22T13:07:05.040Z,5.28
2023-05-22T13:09:31.831Z,5.00
2023-05-22T13:11:58.859Z,4.97
2023-05-22T13:14:25.704Z,5.82
2023-05-22T13:16:52.731Z,4.25
2023-05-22T13:19:19.507Z,4.95
2023-05-22T13:21:46.327Z,6.88
2023-05-22T13:24:13.055Z,5.72
2023-05-22T13:26:39.793Z,8.00
2023-05-22T13:29:06.831Z,5.53
2023-05-22T13:31:37.599Z,4.90
2023-05-22T13:34:05.320Z,4.03
2023-05-22T13:36:50.694Z,5.90
2023-05-22T13:39:17.541Z,4.53
2023-05-22T13:41:44.860Z,6.28
2023-05-22T13:44:11.854Z,3.90
2023-05-22T13:46:40.724Z,4.15
2023-05-22T13:49:08.109Z,11.82
2023-05-22T13:51:34.906Z,4.10
2023-05-22T13:54:03.176Z,5.13
2023-05-22T13:56:29.923Z,8.82
2023-05-22T13:58:57.270Z,5.78
2023-05-22T14:01:24.201Z,5.97
2023-05-22T14:03:51.030Z,3.85
2023-05-22T14:06:17.907Z,5.35
2023-05-22T14:08:44.665Z,3.95
2023-05-22T14:11:11.430Z,5.88
2023-05-22T14:13:38.363Z,8.95
2023-05-22T14:16:05.601Z,7.80
2023-05-22T14:18:32.466Z,7.57
2023-05-22T14:20:59.246Z,7.25
2023-05-22T14:23:26.284Z,6.78
2023-05-22T14:25:53.023Z,5.32
2023-05-22T14:28:19.813Z,4.20
2023-05-22T14:30:46.926Z,4.38
2023-05-22T14:33:13.748Z,4.20
2023-05-22T14:35:40.839Z,6.00
2023-05-22T14:38:08.153Z,5.22
2023-05-22T14:40:34.881Z,3.95
2023-05-22T14:43:01.630Z,4.50
2023-05-22T14:45:28.618Z,4.35
2023-05-22T14:47:55.493Z,4.60
2023-05-22T14:50:22.356Z,5.27
2023-05-22T14:52:49.974Z,4.65
2023-05-22T14:55:17.553Z,5.15
2023-05-22T14:57:44.746Z,5.15
2023-05-22T15:00:12.574Z,5.75
2023-05-22T15:02:40.159Z,7.40
2023-05-22T15:05:07.763Z,4.95
2023-05-22T15:07:43.943Z,4.60
2023-05-22T15:10:12.175Z,6.65
2023-05-22T15:12:39.373Z,9.27
2023-05-22T15:15:06.591Z,7.70
2023-05-22T15:17:33.479Z,5.00
2023-05-22T15:20:00.549Z,4.35
2023-05-22T15:22:27.533Z,4.88
2023-05-22T15:25:08.876Z,6.22
2023-05-22T15:27:36.128Z,6.68
2023-05-22T15:30:04.053Z,5.30
2023-05-22T15:32:32.879Z,5.32
2023-05-22T15:34:59.994Z,3.97
2023-05-22T15:37:29.187Z,3.85
2023-05-22T15:40:40.709Z,4.28
2023-05-22T15:43:08.290Z,8.23
2023-05-22T15:45:38.693Z,3.90
2023-05-22T15:48:07.064Z,4.23
2023-05-22T15:50:34.133Z,4.53
2023-05-22T15:53:01.588Z,3.92
2023-05-22T15:55:29.057Z,4.55
2023-05-22T15:57:55.842Z,4.45
2023-05-22T16:00:22.707Z,6.77
2023-05-22T16:02:49.843Z,5.82
2023-05-22T16:05:16.977Z,4.60
2023-05-22T16:07:44.012Z,4.10
2023-05-22T16:10:11.187Z,4.65
2023-05-22T16:12:39.683Z,5.05
2023-05-22T16:15:07.362Z,5.90
2023-05-22T16:17:34.175Z,4.70
2023-05-22T16:20:01.307Z,5.57
2023-05-22T16:22:40.030Z,6.33
2023-05-22T16:26:11.046Z,6.10
2023-05-22T16:28:38.020Z,7.80
2023-05-22T16:31:06.283Z,5.80
2023-05-22T16:33:34.460Z,5.10
2023-05-22T16:36:01.510Z,6.50
2023-05-22T16:38:28.567Z,5.80
2023-05-22T16:40:55.327Z,5.33
2023-05-22T16:43:22.324Z,6.23
2023-05-22T16:45:51.531Z,5.60
2023-05-22T16:48:18.849Z,6.40
2023-05-22T16:50:46.694Z,5.30
2023-05-22T16:53:16.714Z,8.27
2023-05-22T16:55:43.950Z,5.83
2023-05-22T16:58:12.689Z,8.30
2023-05-22T17:00:40.511Z,8.07
2023-05-22T17:03:08.281Z,8.93
2023-05-22T17:05:36.228Z,8.00
2023-05-22T17:08:03.354Z,7.27
2023-05-22T17:10:30.497Z,5.60
2023-05-22T17:12:57.225Z,7.10
2023-05-22T17:15:24.127Z,7.93
2023-05-22T17:17:51.346Z,9.93
2023-05-22T17:20:18.277Z,6.47
2023-05-22T17:22:45.019Z,6.50
2023-05-22T17:25:12.116Z,6.20
2023-05-22T17:27:38.882Z,6.20
2023-05-22T17:30:07.721Z,5.87
2023-05-22T17:32:35.523Z,9.23
2023-05-22T17:35:02.405Z,5.90
2023-05-22T17:37:29.204Z,7.27
2023-05-22T17:39:55.958Z,7.30
2023-05-22T17:42:22.960Z,8.97
2023-05-22T17:44:49.828Z,7.00
2023-05-22T17:47:16.668Z,7.73
2023-05-22T17:49:43.431Z,8.17
2023-05-22T17:52:11.363Z,6.83
2023-05-22T17:54:38.302Z,6.30
2023-05-22T17:57:05.178Z,7.13
2023-05-22T17:59:33.034Z,7.00
2023-05-22T18:01:59.821Z,8.37
2023-05-22T18:04:26.660Z,6.27
2023-05-22T18:06:53.468Z,7.13
2023-05-22T18:09:20.345Z,6.67
2023-05-22T18:11:47.157Z,6.60
2023-05-22T18:14:14.215Z,7.57
2023-05-22T18:16:40.968Z,6.70
2023-05-22T18:19:08.006Z,7.33
2023-05-22T18:21:34.928Z,7.33
2023-05-22T18:24:01.667Z,6.70
2023-05-22T18:26:28.497Z,8.23
2023-05-22T18:28:55.461Z,8.10
2023-05-22T18:31:22.572Z,9.77
2023-05-22T18:33:49.414Z,6.63
2023-05-22T18:36:16.240Z,7.90
2023-05-22T18:38:43.202Z,7.03
2023-05-22T18:41:09.952Z,7.87
2023-05-22T18:43:36.746Z,7.83
2023-05-22T18:46:03.908Z,7.13
2023-05-22T18:48:31.325Z,7.37
2023-05-22T18:50:58.866Z,6.80
2023-05-22T18:53:26.358Z,8.47
2023-05-22T18:55:54.136Z,8.37
2023-05-22T18:58:21.366Z,36.80
2023-05-22T19:00:48.798Z,52.00
2023-05-22T19:03:15.578Z,16.63
2023-05-22T19:05:43.039Z,26.37
2023-05-22T19:08:10.079Z,32.97
2023-05-22T19:10:37.122Z,24.40
2023-05-22T19:13:04.204Z,13.27
2023-05-22T19:15:30.930Z,9.03
2023-05-22T19:17:58.070Z,7.90
2023-05-22T19:20:25.021Z,7.23
2023-05-22T19:22:52.221Z,10.40
2023-05-22T19:25:19.105Z,10.83
2023-05-22T19:27:47.823Z,8.33
2023-05-22T19:30:16.484Z,8.33
2023-05-22T19:32:43.866Z,9.17
2023-05-22T19:35:13.779Z,7.70
2023-05-22T19:37:40.570Z,8.20
2023-05-22T19:40:09.704Z,7.80
2023-05-22T19:42:38.745Z,7.57
2023-05-22T19:45:06.148Z,9.13
2023-05-22T19:47:32.965Z,7.80
2023-05-22T19:50:00.133Z,7.83
2023-05-22T19:52:26.976Z,9.03
2023-05-22T19:54:53.967Z,12.50
2023-05-22T19:57:20.830Z,8.80
2023-05-22T19:59:47.878Z,10.17
2023-05-22T20:02:14.673Z,9.93
2023-05-22T20:04:43.105Z,7.80
2023-05-22T20:07:10.924Z,7.63
2023-05-22T20:09:37.632Z,10.13
2023-05-22T20:12:04.789Z,9.00
2023-05-22T20:14:31.485Z,9.23
2023-05-22T20:17:01.450Z,8.80
2023-05-22T20:19:28.455Z,9.03
2023-05-22T20:21:56.591Z,9.83
2023-05-22T20:24:25.160Z,8.47
2023-05-22T20:26:52.822Z,7.67
2023-05-22T20:29:19.902Z,8.50
2023-05-22T20:31:46.832Z,7.23
2023-05-22T20:34:14.062Z,7.50
2023-05-22T20:36:42.616Z,11.37
2023-05-22T20:39:10.783Z,10.37
2023-05-22T20:41:38.742Z,9.10
2023-05-22T20:44:06.410Z,8.23
2023-05-22T20:46:33.404Z,9.83
2023-05-22T20:49:00.210Z,9.57
2023-05-22T20:51:32.824Z,8.17
2023-05-22T20:54:00.284Z,8.03
2023-05-22T20:56:27.758Z,11.60
2023-05-22T20:58:54.862Z,8.90
2023-05-22T21:01:22.589Z,9.40
2023-05-22T21:03:52.677Z,9.13
2023-05-22T21:06:20.254Z,11.47
2023-05-22T21:08:47.125Z,9.33
2023-05-22T21:11:13.971Z,8.27
2023-05-22T21:13:41.141Z,8.60
2023-05-22T21:16:08.165Z,8.50
2023-05-22T21:18:34.915Z,9.97
2023-05-22T21:21:01.742Z,8.40
2023-05-22T21:23:28.617Z,10.10
2023-05-22T21:25:55.337Z,8.27
2023-05-22T21:28:22.283Z,8.93
2023-05-22T21:30:49.008Z,8.87
2023-05-22T21:33:15.897Z,10.00
2023-05-22T21:35:42.898Z,10.13
2023-05-22T21:38:09.890Z,10.87
2023-05-22T21:40:36.680Z,9.67
2023-05-22T21:43:03.436Z,8.40
2023-05-22T21:45:31.374Z,12.53
2023-05-22T21:47:58.171Z,8.90
2023-05-22T21:50:25.056Z,9.57
2023-05-22T21:52:52.122Z,10.40
2023-05-22T21:55:18.811Z,9.23
2023-05-22T21:57:46.121Z,8.80
2023-05-22T22:00:13.428Z,9.60
2023-05-22T22:02:40.450Z,8.77
2023-05-22T22:05:08.132Z,9.30
2023-05-22T22:07:34.860Z,9.80
2023-05-22T22:10:01.928Z,10.40
2023-05-22T22:12:28.670Z,9.23
2023-05-22T22:14:57.016Z,8.97
2023-05-22T22:17:24.117Z,9.43
2023-05-22T22:19:53.857Z,9.20
2023-05-22T22:22:22.660Z,9.53
2023-05-22T22:24:49.939Z,9.37
2023-05-22T22:27:17.031Z,9.60
2023-05-22T22:29:44.000Z,9.30
2023-05-22T22:32:11.014Z,10.30
2023-05-22T22:34:38.160Z,9.60
2023-05-22T22:37:06.870Z,12.17
2023-05-22T22:39:33.923Z,9.90
2023-05-22T22:42:04.189Z,10.27
2023-05-22T22:44:32.034Z,9.93
2023-05-22T22:46:58.902Z,11.77
2023-05-22T22:49:25.657Z,9.67
2023-05-22T22:51:52.784Z,9.20
2023-05-22T22:54:19.600Z,9.20
2023-05-22T22:56:50.176Z,10.53
2023-05-22T22:59:17.137Z,13.13
2023-05-22T23:01:44.002Z,9.37
2023-05-22T23:04:11.483Z,10.30
2023-05-22T23:06:42.047Z,9.27
2023-05-22T23:09:11.370Z,9.90
2023-05-22T23:11:38.785Z,9.90
2023-05-22T23:14:09.151Z,9.50
2023-05-22T23:16:42.633Z,9.27
2023-05-22T23:19:10.999Z,9.97
2023-05-22T23:21:38.188Z,10.10
2023-05-22T23:24:05.560Z,11.33
2023-05-22T23:26:33.068Z,10.27
2023-05-22T23:29:00.804Z,9.87
2023-05-22T23:31:31.282Z,10.17
2023-05-22T23:33:58.978Z,9.90
2023-05-22T23:36:25.902Z,11.47
2023-05-22T23:38:53.048Z,10.33
2023-05-22T23:41:19.823Z,10.27
2023-05-22T23:43:46.773Z,10.10
2023-05-22T23:46:14.314Z,10.33
2023-05-22T23:48:42.154Z,10.83
2023-05-22T23:51:10.050Z,10.50
2023-05-22T23:53:36.920Z,10.53
2023-05-22T23:56:07.123Z,10.93
2023-05-22T23:58:33.834Z,10.83
